This is the latest recevied weather packets stored in our database for station/object EA3CH. If no packets are shown the sender has not sent any weather packets the latest 10 day(s).
| Time | Temp. | Humidity | Pressure | Rain* | Wind** | Luminosity | Snow |
|---|---|---|---|---|---|---|---|
| 1787923804 | 26.67° C | 35% | 1018.9 hPa | 0 mm | - | 0 W/m² | - |
| 1787922904 | 27.22° C | 33% | 1019 hPa | 0 mm | - | 0 W/m² | - |
| 1787922006 | 26.11° C | 28% | 1018.9 hPa | 0 mm | - | 0 W/m² | - |
| 1787922004 | 26.67° C | 37% | 1019.1 hPa | 0 mm | - | 0 W/m² | - |
| 1787921104 | 26.11° C | 37% | 1019.1 hPa | 0 mm | - | 0 W/m² | - |
| 1787920207 | 25.56° C | 31% | 1018.8 hPa | 0 mm | - | 0 W/m² | - |
| 1787919307 | 25° C | 32% | 1018.7 hPa | 0 mm | - | 0 W/m² | - |
| 1787919304 | 25° C | 41% | 1018.9 hPa | 0 mm | - | 0 W/m² | - |
| 1787918414 | 25° C | 42% | 1019 hPa | 0 mm | - | 0 W/m² | - |
| 1787917506 | 25° C | 32% | 1018.9 hPa | 0 mm | - | 0 W/m² | - |
| 1787917504 | 25° C | 41% | 1019 hPa | 0 mm | - | 0 W/m² | - |
| 1787916604 | 24.44° C | 42% | 1019.1 hPa | 0 mm | - | 0 W/m² | - |
| 1787915704 | 24.44° C | 42% | 1019.1 hPa | 0 mm | - | 0 W/m² | - |
| 1787914806 | 23.89° C | 34% | 1018.8 hPa | 0 mm | - | 0 W/m² | - |
| 1787914804 | 23.89° C | 43% | 1019 hPa | 0 mm | - | 0 W/m² | - |
| 1787913903 | 23.33° C | 45% | 1018.9 hPa | 0 mm | - | 0 W/m² | - |
| 1787913005 | 23.33° C | 36% | 1018.7 hPa | 0 mm | - | 0 W/m² | - |
| 1787913004 | 23.33° C | 44% | 1018.9 hPa | 0 mm | - | 0 W/m² | - |
| 1787912104 | 23.33° C | 45% | 1019.1 hPa | 0 mm | - | 0 W/m² | - |
| 1787911206 | 23.33° C | 37% | 1019.1 hPa | 0 mm | - | 0 W/m² | - |
| 1787911203 | 23.33° C | 46% | 1019.2 hPa | 0 mm | - | 0 W/m² | - |
| 1787910306 | 22.78° C | 36% | 1019 hPa | 0 mm | - | 0 W/m² | - |
| 1787910304 | 22.78° C | 45% | 1019.1 hPa | 0 mm | - | 0 W/m² | - |
| 1787909404 | 22.78° C | 47% | 1019.3 hPa | 0 mm | - | 0 W/m² | - |
| 1787908507 | 21.67° C | 39% | 1019 hPa | 0 mm | - | 0 W/m² | - |
* Rain latest hour (hover to see other rain measurements)
** Current wind speed in m/s (hover to see current wind gust speed)